Main page
Satellite images 15-day forecastsClimateMarine weather Cyclones Lightning AirportsFAQ Newsletter About
Weather : Europe Africa North America South America Asia Australia-Oceania Others
Languages Contact

London-Southend, England

latitude: 51-34N, longitude: 000-42E, elevation: 15 m


METAR: EGMC 010250Z 25003KT CAVOK 16/13 Q1011
short-TAF: EGMC 010201Z 0103/0112 22007KT 9999 FEW030 PROB30 0103/0108 7000 BKN014
long-TAF: missing

Time: 04:42 (03:42 UTC)

Current weather observation

The report was made 52 minutes ago, at 02:50 UTC  
Wind 03 kt from the West/Southwest
Temperature 16°C
Humidity 82%
Pressure 1011 hPa
Visibility 10 km or more
no clouds below 1500 m and no cumulonimbus

Change units

Forecast

The report was made 1 hour and 27 minutes ago, at 02:15 UTC  
Forecast valid from 01 at 03 UTC to 01 at 12 UTC
Wind 07 kt from the Southwest
Visibility 10 km or more
Few clouds at a height of 3000 ft
Probability 30%
from 01 at 03 UTC to 01 at 08 UTC
Visibility 7000 m
Broken clouds at a height of 1400 ft
The information on this site is subject to a disclaimer
Weather : Europe Africa North America South America Asia Australia-Oceania Others
Satellite images 15-day forecastsClimateMarine weather Cyclones Lightning AirportsFAQ Languages Contact Newsletter About